sensor_id;sensor_type;location;lat;lon;timestamp;P1;durP1;ratioP1;P2;durP2;ratioP2
62903;SDS011;49000;50.698;13.322;2022-10-16T00:01:12;2.37;;;1.60;;
62903;SDS011;49000;50.698;13.322;2022-10-16T00:03:39;3.87;;;1.27;;
62903;SDS011;49000;50.698;13.322;2022-10-16T00:06:05;1.83;;;1.60;;
62903;SDS011;49000;50.698;13.322;2022-10-16T00:08:32;3.00;;;1.60;;
62903;SDS011;49000;50.698;13.322;2022-10-16T00:10:59;3.17;;;1.90;;
62903;SDS011;49000;50.698;13.322;2022-10-16T00:13:36;2.33;;;1.80;;
62903;SDS011;49000;50.698;13.322;2022-10-16T00:16:03;1.90;;;1.73;;
62903;SDS011;49000;50.698;13.322;2022-10-16T00:18:30;2.50;;;1.90;;
62903;SDS011;49000;50.698;13.322;2022-10-16T00:21:01;2.10;;;1.50;;
62903;SDS011;49000;50.698;13.322;2022-10-16T00:23:28;1.70;;;1.60;;
62903;SDS011;49000;50.698;13.322;2022-10-16T00:25:54;2.87;;;2.07;;
62903;SDS011;49000;50.698;13.322;2022-10-16T00:28:22;2.93;;;1.67;;
62903;SDS011;49000;50.698;13.322;2022-10-16T00:30:47;2.80;;;2.13;;
62903;SDS011;49000;50.698;13.322;2022-10-16T00:33:13;4.50;;;2.00;;
62903;SDS011;49000;50.698;13.322;2022-10-16T00:35:38;1.80;;;1.70;;
62903;SDS011;49000;50.698;13.322;2022-10-16T00:38:04;2.37;;;1.93;;
62903;SDS011;49000;50.698;13.322;2022-10-16T00:40:29;2.20;;;2.00;;
62903;SDS011;49000;50.698;13.322;2022-10-16T00:42:56;3.03;;;2.10;;
62903;SDS011;49000;50.698;13.322;2022-10-16T00:45:22;2.10;;;1.90;;
62903;SDS011;49000;50.698;13.322;2022-10-16T00:47:48;3.43;;;2.03;;
62903;SDS011;49000;50.698;13.322;2022-10-16T00:52:58;4.03;;;1.53;;
62903;SDS011;49000;50.698;13.322;2022-10-16T00:55:25;1.93;;;1.70;;
62903;SDS011;49000;50.698;13.322;2022-10-16T00:57:52;3.93;;;2.00;;
62903;SDS011;49000;50.698;13.322;2022-10-16T01:00:20;2.20;;;2.00;;
62903;SDS011;49000;50.698;13.322;2022-10-16T01:02:54;2.20;;;1.73;;
62903;SDS011;49000;50.698;13.322;2022-10-16T01:05:22;1.93;;;1.80;;
62903;SDS011;49000;50.698;13.322;2022-10-16T01:07:58;2.70;;;1.87;;
62903;SDS011;49000;50.698;13.322;2022-10-16T01:10:41;2.60;;;2.20;;
62903;SDS011;49000;50.698;13.322;2022-10-16T01:15:50;1.57;;;1.47;;
62903;SDS011;49000;50.698;13.322;2022-10-16T01:18:28;1.90;;;1.63;;
62903;SDS011;49000;50.698;13.322;2022-10-16T01:21:05;3.30;;;1.90;;
62903;SDS011;49000;50.698;13.322;2022-10-16T01:23:39;2.87;;;1.90;;
62903;SDS011;49000;50.698;13.322;2022-10-16T01:35:02;1.73;;;1.63;;
62903;SDS011;49000;50.698;13.322;2022-10-16T01:37:35;2.03;;;1.73;;
62903;SDS011;49000;50.698;13.322;2022-10-16T01:40:06;3.37;;;2.10;;
62903;SDS011;49000;50.698;13.322;2022-10-16T01:42:37;1.83;;;1.73;;
62903;SDS011;49000;50.698;13.322;2022-10-16T01:45:06;3.00;;;1.67;;
62903;SDS011;49000;50.698;13.322;2022-10-16T01:47:33;1.70;;;1.60;;
62903;SDS011;49000;50.698;13.322;2022-10-16T01:50:02;2.50;;;1.50;;
62903;SDS011;49000;50.698;13.322;2022-10-16T01:52:29;2.07;;;1.40;;
62903;SDS011;49000;50.698;13.322;2022-10-16T01:54:58;1.70;;;1.60;;
62903;SDS011;49000;50.698;13.322;2022-10-16T01:57:27;2.10;;;1.50;;
62903;SDS011;49000;50.698;13.322;2022-10-16T01:59:56;1.30;;;1.20;;
62903;SDS011;49000;50.698;13.322;2022-10-16T02:02:26;2.27;;;1.20;;
62903;SDS011;49000;50.698;13.322;2022-10-16T02:04:55;1.40;;;1.30;;
62903;SDS011;49000;50.698;13.322;2022-10-16T02:07:29;2.10;;;1.20;;
62903;SDS011;49000;50.698;13.322;2022-10-16T02:09:54;1.33;;;1.10;;
62903;SDS011;49000;50.698;13.322;2022-10-16T02:12:25;1.77;;;1.10;;
62903;SDS011;49000;50.698;13.322;2022-10-16T02:14:53;1.30;;;1.20;;
62903;SDS011;49000;50.698;13.322;2022-10-16T02:17:19;1.80;;;1.30;;
62903;SDS011;49000;50.698;13.322;2022-10-16T02:19:46;1.23;;;1.13;;
62903;SDS011;49000;50.698;13.322;2022-10-16T02:25:15;1.50;;;1.07;;
62903;SDS011;49000;50.698;13.322;2022-10-16T02:30:39;4.63;;;1.43;;
62903;SDS011;49000;50.698;13.322;2022-10-16T02:33:09;1.10;;;1.00;;
62903;SDS011;49000;50.698;13.322;2022-10-16T02:35:38;2.57;;;1.17;;
62903;SDS011;49000;50.698;13.322;2022-10-16T02:38:04;1.30;;;1.00;;
62903;SDS011;49000;50.698;13.322;2022-10-16T02:40:32;1.10;;;1.00;;
62903;SDS011;49000;50.698;13.322;2022-10-16T02:42:58;1.10;;;1.00;;
62903;SDS011;49000;50.698;13.322;2022-10-16T02:45:24;2.63;;;1.17;;
62903;SDS011;49000;50.698;13.322;2022-10-16T02:47:50;1.07;;;0.97;;
62903;SDS011;49000;50.698;13.322;2022-10-16T02:50:15;0.80;;;0.80;;
62903;SDS011;49000;50.698;13.322;2022-10-16T02:52:41;1.60;;;0.80;;
62903;SDS011;49000;50.698;13.322;2022-10-16T02:55:07;4.63;;;1.00;;
62903;SDS011;49000;50.698;13.322;2022-10-16T02:57:33;3.03;;;1.10;;
62903;SDS011;49000;50.698;13.322;2022-10-16T02:59:58;1.23;;;1.00;;
62903;SDS011;49000;50.698;13.322;2022-10-16T03:02:24;1.07;;;0.73;;
62903;SDS011;49000;50.698;13.322;2022-10-16T03:04:50;1.43;;;1.20;;
62903;SDS011;49000;50.698;13.322;2022-10-16T03:07:15;1.53;;;0.90;;
62903;SDS011;49000;50.698;13.322;2022-10-16T03:09:41;2.90;;;1.10;;
62903;SDS011;49000;50.698;13.322;2022-10-16T03:12:06;2.23;;;1.20;;
62903;SDS011;49000;50.698;13.322;2022-10-16T03:14:32;0.70;;;0.70;;
62903;SDS011;49000;50.698;13.322;2022-10-16T03:16:58;3.47;;;1.03;;
62903;SDS011;49000;50.698;13.322;2022-10-16T03:19:23;1.00;;;0.90;;
62903;SDS011;49000;50.698;13.322;2022-10-16T03:21:49;0.80;;;0.80;;
62903;SDS011;49000;50.698;13.322;2022-10-16T03:24:14;1.07;;;0.97;;
62903;SDS011;49000;50.698;13.322;2022-10-16T03:26:40;1.30;;;0.70;;
62903;SDS011;49000;50.698;13.322;2022-10-16T03:29:05;2.17;;;0.90;;
62903;SDS011;49000;50.698;13.322;2022-10-16T03:31:31;0.90;;;0.90;;
62903;SDS011;49000;50.698;13.322;2022-10-16T03:33:57;2.83;;;0.97;;
62903;SDS011;49000;50.698;13.322;2022-10-16T03:36:23;0.73;;;0.70;;
62903;SDS011;49000;50.698;13.322;2022-10-16T03:38:48;2.03;;;0.90;;
62903;SDS011;49000;50.698;13.322;2022-10-16T03:41:14;0.63;;;0.63;;
62903;SDS011;49000;50.698;13.322;2022-10-16T03:43:39;1.20;;;1.07;;
62903;SDS011;49000;50.698;13.322;2022-10-16T03:46:05;1.57;;;0.90;;
62903;SDS011;49000;50.698;13.322;2022-10-16T03:48:31;2.77;;;1.10;;
62903;SDS011;49000;50.698;13.322;2022-10-16T03:50:57;1.83;;;0.80;;
62903;SDS011;49000;50.698;13.322;2022-10-16T03:53:22;0.93;;;0.83;;
62903;SDS011;49000;50.698;13.322;2022-10-16T03:55:48;1.50;;;0.83;;
62903;SDS011;49000;50.698;13.322;2022-10-16T03:58:14;1.03;;;0.93;;
62903;SDS011;49000;50.698;13.322;2022-10-16T04:00:40;1.83;;;1.07;;
62903;SDS011;49000;50.698;13.322;2022-10-16T04:03:06;2.30;;;1.13;;
62903;SDS011;49000;50.698;13.322;2022-10-16T04:05:32;1.00;;;0.90;;
62903;SDS011;49000;50.698;13.322;2022-10-16T04:07:57;0.80;;;0.80;;
62903;SDS011;49000;50.698;13.322;2022-10-16T04:10:23;3.57;;;0.87;;
62903;SDS011;49000;50.698;13.322;2022-10-16T04:12:48;1.13;;;1.03;;
62903;SDS011;49000;50.698;13.322;2022-10-16T04:15:14;1.50;;;0.97;;
62903;SDS011;49000;50.698;13.322;2022-10-16T04:17:39;2.10;;;1.00;;
62903;SDS011;49000;50.698;13.322;2022-10-16T04:20:05;3.07;;;1.40;;
62903;SDS011;49000;50.698;13.322;2022-10-16T04:22:31;1.17;;;1.00;;
62903;SDS011;49000;50.698;13.322;2022-10-16T04:24:56;2.07;;;1.07;;
62903;SDS011;49000;50.698;13.322;2022-10-16T04:27:22;3.50;;;1.50;;
62903;SDS011;49000;50.698;13.322;2022-10-16T04:29:47;2.67;;;1.20;;
62903;SDS011;49000;50.698;13.322;2022-10-16T04:32:13;1.70;;;1.50;;
62903;SDS011;49000;50.698;13.322;2022-10-16T04:34:39;2.97;;;1.20;;
62903;SDS011;49000;50.698;13.322;2022-10-16T04:37:05;1.50;;;1.40;;
62903;SDS011;49000;50.698;13.322;2022-10-16T04:39:30;1.50;;;1.30;;
62903;SDS011;49000;50.698;13.322;2022-10-16T04:41:56;3.57;;;1.70;;
62903;SDS011;49000;50.698;13.322;2022-10-16T04:44:21;2.70;;;1.50;;
62903;SDS011;49000;50.698;13.322;2022-10-16T04:46:47;2.80;;;2.00;;
62903;SDS011;49000;50.698;13.322;2022-10-16T04:49:15;2.30;;;1.70;;
62903;SDS011;49000;50.698;13.322;2022-10-16T04:51:41;2.40;;;1.87;;
62903;SDS011;49000;50.698;13.322;2022-10-16T04:54:06;2.53;;;1.83;;
62903;SDS011;49000;50.698;13.322;2022-10-16T04:56:32;2.33;;;2.00;;
62903;SDS011;49000;50.698;13.322;2022-10-16T04:58:57;3.10;;;1.80;;
62903;SDS011;49000;50.698;13.322;2022-10-16T05:01:23;2.10;;;1.63;;
62903;SDS011;49000;50.698;13.322;2022-10-16T05:03:48;1.60;;;1.50;;
62903;SDS011;49000;50.698;13.322;2022-10-16T05:06:14;1.80;;;1.60;;
62903;SDS011;49000;50.698;13.322;2022-10-16T05:08:39;1.53;;;1.43;;
62903;SDS011;49000;50.698;13.322;2022-10-16T05:11:05;1.73;;;1.63;;
62903;SDS011;49000;50.698;13.322;2022-10-16T05:13:30;4.23;;;1.33;;
62903;SDS011;49000;50.698;13.322;2022-10-16T05:15:56;1.87;;;1.47;;
62903;SDS011;49000;50.698;13.322;2022-10-16T05:18:22;1.20;;;1.07;;
62903;SDS011;49000;50.698;13.322;2022-10-16T05:20:47;1.60;;;1.30;;
62903;SDS011;49000;50.698;13.322;2022-10-16T05:23:13;1.73;;;1.60;;
62903;SDS011;49000;50.698;13.322;2022-10-16T05:25:38;1.30;;;1.20;;
62903;SDS011;49000;50.698;13.322;2022-10-16T05:28:04;1.40;;;1.23;;
62903;SDS011;49000;50.698;13.322;2022-10-16T05:30:29;2.07;;;1.20;;
62903;SDS011;49000;50.698;13.322;2022-10-16T05:32:55;3.20;;;1.70;;
62903;SDS011;49000;50.698;13.322;2022-10-16T05:35:20;1.50;;;1.40;;
62903;SDS011;49000;50.698;13.322;2022-10-16T05:37:46;2.70;;;1.33;;
62903;SDS011;49000;50.698;13.322;2022-10-16T05:40:12;2.53;;;1.60;;
62903;SDS011;49000;50.698;13.322;2022-10-16T05:42:38;6.43;;;3.47;;
62903;SDS011;49000;50.698;13.322;2022-10-16T05:45:05;3.90;;;2.80;;
62903;SDS011;49000;50.698;13.322;2022-10-16T05:47:31;4.17;;;2.17;;
62903;SDS011;49000;50.698;13.322;2022-10-16T05:49:57;3.63;;;2.73;;
62903;SDS011;49000;50.698;13.322;2022-10-16T05:52:22;2.63;;;1.70;;
62903;SDS011;49000;50.698;13.322;2022-10-16T05:54:48;1.60;;;1.47;;
62903;SDS011;49000;50.698;13.322;2022-10-16T05:57:13;1.40;;;1.30;;
62903;SDS011;49000;50.698;13.322;2022-10-16T05:59:39;2.63;;;1.30;;
62903;SDS011;49000;50.698;13.322;2022-10-16T06:02:05;1.20;;;1.03;;
62903;SDS011;49000;50.698;13.322;2022-10-16T06:04:30;1.47;;;1.07;;
62903;SDS011;49000;50.698;13.322;2022-10-16T06:06:58;1.27;;;1.10;;
62903;SDS011;49000;50.698;13.322;2022-10-16T06:09:25;2.30;;;1.27;;
62903;SDS011;49000;50.698;13.322;2022-10-16T06:11:51;1.97;;;1.10;;
62903;SDS011;49000;50.698;13.322;2022-10-16T06:14:16;3.77;;;1.70;;
62903;SDS011;49000;50.698;13.322;2022-10-16T06:16:42;1.90;;;1.53;;
62903;SDS011;49000;50.698;13.322;2022-10-16T06:19:07;2.83;;;1.23;;
62903;SDS011;49000;50.698;13.322;2022-10-16T06:21:34;1.60;;;1.43;;
62903;SDS011;49000;50.698;13.322;2022-10-16T06:23:59;1.60;;;1.50;;
62903;SDS011;49000;50.698;13.322;2022-10-16T06:26:26;1.80;;;1.43;;
62903;SDS011;49000;50.698;13.322;2022-10-16T06:28:56;3.73;;;1.50;;
62903;SDS011;49000;50.698;13.322;2022-10-16T06:31:24;1.77;;;1.10;;
62903;SDS011;49000;50.698;13.322;2022-10-16T06:33:56;1.50;;;1.40;;
62903;SDS011;49000;50.698;13.322;2022-10-16T06:36:21;1.23;;;1.07;;
62903;SDS011;49000;50.698;13.322;2022-10-16T06:38:48;1.27;;;1.00;;
62903;SDS011;49000;50.698;13.322;2022-10-16T06:41:15;2.37;;;1.20;;
62903;SDS011;49000;50.698;13.322;2022-10-16T06:43:42;1.30;;;1.20;;
62903;SDS011;49000;50.698;13.322;2022-10-16T06:46:10;2.30;;;1.70;;
62903;SDS011;49000;50.698;13.322;2022-10-16T06:48:37;1.53;;;1.43;;
62903;SDS011;49000;50.698;13.322;2022-10-16T06:51:08;1.37;;;1.27;;
62903;SDS011;49000;50.698;13.322;2022-10-16T06:53:41;4.47;;;1.43;;
62903;SDS011;49000;50.698;13.322;2022-10-16T06:56:13;2.60;;;1.40;;
62903;SDS011;49000;50.698;13.322;2022-10-16T06:58:44;1.70;;;1.50;;
62903;SDS011;49000;50.698;13.322;2022-10-16T07:01:11;1.40;;;1.30;;
62903;SDS011;49000;50.698;13.322;2022-10-16T07:03:38;1.70;;;1.60;;
62903;SDS011;49000;50.698;13.322;2022-10-16T07:06:06;2.03;;;1.33;;
62903;SDS011;49000;50.698;13.322;2022-10-16T07:08:33;1.77;;;1.20;;
62903;SDS011;49000;50.698;13.322;2022-10-16T07:11:03;1.70;;;1.60;;
62903;SDS011;49000;50.698;13.322;2022-10-16T07:13:37;1.20;;;1.10;;
62903;SDS011;49000;50.698;13.322;2022-10-16T07:16:08;1.83;;;1.50;;
62903;SDS011;49000;50.698;13.322;2022-10-16T07:18:34;2.17;;;1.10;;
62903;SDS011;49000;50.698;13.322;2022-10-16T07:21:06;4.30;;;1.50;;
62903;SDS011;49000;50.698;13.322;2022-10-16T07:23:34;2.53;;;1.40;;
62903;SDS011;49000;50.698;13.322;2022-10-16T07:25:59;1.40;;;1.30;;
62903;SDS011;49000;50.698;13.322;2022-10-16T07:28:25;2.70;;;1.40;;
62903;SDS011;49000;50.698;13.322;2022-10-16T07:30:51;1.23;;;1.13;;
62903;SDS011;49000;50.698;13.322;2022-10-16T07:33:16;1.40;;;1.30;;
62903;SDS011;49000;50.698;13.322;2022-10-16T07:35:49;1.37;;;1.27;;
62903;SDS011;49000;50.698;13.322;2022-10-16T07:38:15;1.77;;;1.67;;
62903;SDS011;49000;50.698;13.322;2022-10-16T07:40:41;3.90;;;1.77;;
62903;SDS011;49000;50.698;13.322;2022-10-16T07:43:06;3.33;;;1.53;;
62903;SDS011;49000;50.698;13.322;2022-10-16T07:45:32;2.63;;;1.70;;
62903;SDS011;49000;50.698;13.322;2022-10-16T07:47:58;3.40;;;1.40;;
62903;SDS011;49000;50.698;13.322;2022-10-16T07:50:23;1.93;;;1.63;;
62903;SDS011;49000;50.698;13.322;2022-10-16T07:52:49;2.03;;;1.50;;
62903;SDS011;49000;50.698;13.322;2022-10-16T07:55:14;2.00;;;1.80;;
62903;SDS011;49000;50.698;13.322;2022-10-16T07:57:39;2.53;;;1.77;;
62903;SDS011;49000;50.698;13.322;2022-10-16T08:00:05;1.40;;;1.30;;
62903;SDS011;49000;50.698;13.322;2022-10-16T08:02:31;3.60;;;1.57;;
62903;SDS011;49000;50.698;13.322;2022-10-16T08:04:57;1.80;;;1.40;;
62903;SDS011;49000;50.698;13.322;2022-10-16T08:07:22;2.57;;;1.60;;
62903;SDS011;49000;50.698;13.322;2022-10-16T08:09:51;2.00;;;1.40;;
62903;SDS011;49000;50.698;13.322;2022-10-16T08:12:17;1.40;;;1.30;;
62903;SDS011;49000;50.698;13.322;2022-10-16T08:14:43;1.03;;;0.97;;
62903;SDS011;49000;50.698;13.322;2022-10-16T08:17:08;1.63;;;0.70;;
62903;SDS011;49000;50.698;13.322;2022-10-16T08:19:33;0.83;;;0.80;;
62903;SDS011;49000;50.698;13.322;2022-10-16T08:21:59;1.80;;;0.90;;
62903;SDS011;49000;50.698;13.322;2022-10-16T08:24:25;1.33;;;0.80;;
62903;SDS011;49000;50.698;13.322;2022-10-16T08:26:53;1.60;;;0.90;;
62903;SDS011;49000;50.698;13.322;2022-10-16T08:29:19;2.50;;;1.00;;
62903;SDS011;49000;50.698;13.322;2022-10-16T08:31:44;1.27;;;1.13;;
62903;SDS011;49000;50.698;13.322;2022-10-16T08:34:10;0.70;;;0.70;;
62903;SDS011;49000;50.698;13.322;2022-10-16T08:36:35;1.97;;;1.07;;
62903;SDS011;49000;50.698;13.322;2022-10-16T08:39:01;1.27;;;0.73;;
62903;SDS011;49000;50.698;13.322;2022-10-16T08:41:31;1.33;;;0.70;;
62903;SDS011;49000;50.698;13.322;2022-10-16T08:44:23;0.93;;;0.77;;
62903;SDS011;49000;50.698;13.322;2022-10-16T08:47:09;1.37;;;1.07;;
62903;SDS011;49000;50.698;13.322;2022-10-16T08:49:39;0.63;;;0.60;;
62903;SDS011;49000;50.698;13.322;2022-10-16T08:52:11;1.00;;;0.60;;
62903;SDS011;49000;50.698;13.322;2022-10-16T08:54:41;0.50;;;0.50;;
62903;SDS011;49000;50.698;13.322;2022-10-16T08:57:11;0.60;;;0.60;;
62903;SDS011;49000;50.698;13.322;2022-10-16T08:59:45;0.60;;;0.60;;
62903;SDS011;49000;50.698;13.322;2022-10-16T09:10:09;0.63;;;0.60;;
62903;SDS011;49000;50.698;13.322;2022-10-16T09:13:06;0.53;;;0.53;;
62903;SDS011;49000;50.698;13.322;2022-10-16T09:15:39;1.23;;;0.57;;
62903;SDS011;49000;50.698;13.322;2022-10-16T09:21:30;0.50;;;0.50;;
62903;SDS011;49000;50.698;13.322;2022-10-16T09:24:06;1.93;;;0.60;;
62903;SDS011;49000;50.698;13.322;2022-10-16T09:26:42;0.77;;;0.50;;
62903;SDS011;49000;50.698;13.322;2022-10-16T09:29:10;2.60;;;0.50;;
62903;SDS011;49000;50.698;13.322;2022-10-16T09:31:37;1.03;;;0.80;;
62903;SDS011;49000;50.698;13.322;2022-10-16T09:34:03;2.77;;;0.60;;
62903;SDS011;49000;50.698;13.322;2022-10-16T09:36:42;0.60;;;0.60;;
62903;SDS011;49000;50.698;13.322;2022-10-16T09:39:10;0.67;;;0.67;;
62903;SDS011;49000;50.698;13.322;2022-10-16T09:41:40;1.03;;;0.80;;
62903;SDS011;49000;50.698;13.322;2022-10-16T09:44:19;1.47;;;0.50;;
62903;SDS011;49000;50.698;13.322;2022-10-16T09:46:49;1.00;;;0.70;;
62903;SDS011;49000;50.698;13.322;2022-10-16T09:49:25;0.60;;;0.60;;
62903;SDS011;49000;50.698;13.322;2022-10-16T09:52:03;0.50;;;0.50;;
62903;SDS011;49000;50.698;13.322;2022-10-16T09:54:48;0.50;;;0.47;;
62903;SDS011;49000;50.698;13.322;2022-10-16T09:57:22;0.50;;;0.40;;
62903;SDS011;49000;50.698;13.322;2022-10-16T09:59:49;1.47;;;0.50;;
62903;SDS011;49000;50.698;13.322;2022-10-16T10:02:35;0.43;;;0.43;;
62903;SDS011;49000;50.698;13.322;2022-10-16T10:05:04;0.70;;;0.57;;
62903;SDS011;49000;50.698;13.322;2022-10-16T10:07:32;0.40;;;0.40;;
62903;SDS011;49000;50.698;13.322;2022-10-16T10:10:01;1.77;;;0.67;;
62903;SDS011;49000;50.698;13.322;2022-10-16T10:12:32;0.87;;;0.50;;
62903;SDS011;49000;50.698;13.322;2022-10-16T10:15:09;0.53;;;0.50;;
62903;SDS011;49000;50.698;13.322;2022-10-16T10:17:56;0.67;;;0.40;;
62903;SDS011;49000;50.698;13.322;2022-10-16T10:20:32;0.77;;;0.50;;
62903;SDS011;49000;50.698;13.322;2022-10-16T10:23:01;0.70;;;0.50;;
62903;SDS011;49000;50.698;13.322;2022-10-16T10:33:31;1.73;;;0.70;;
62903;SDS011;49000;50.698;13.322;2022-10-16T10:36:37;0.80;;;0.53;;
62903;SDS011;49000;50.698;13.322;2022-10-16T10:41:55;3.03;;;0.50;;
62903;SDS011;49000;50.698;13.322;2022-10-16T10:50:25;0.50;;;0.50;;
62903;SDS011;49000;50.698;13.322;2022-10-16T10:53:06;2.17;;;0.60;;
62903;SDS011;49000;50.698;13.322;2022-10-16T10:55:54;1.43;;;0.70;;
62903;SDS011;49000;50.698;13.322;2022-10-16T10:58:29;0.70;;;0.60;;
62903;SDS011;49000;50.698;13.322;2022-10-16T11:01:00;0.87;;;0.70;;
62903;SDS011;49000;50.698;13.322;2022-10-16T11:06:21;0.50;;;0.50;;
62903;SDS011;49000;50.698;13.322;2022-10-16T11:11:47;0.60;;;0.60;;
62903;SDS011;49000;50.698;13.322;2022-10-16T11:14:20;1.23;;;0.60;;
62903;SDS011;49000;50.698;13.322;2022-10-16T11:16:58;0.80;;;0.70;;
62903;SDS011;49000;50.698;13.322;2022-10-16T11:24:47;0.90;;;0.80;;
62903;SDS011;49000;50.698;13.322;2022-10-16T11:27:34;1.83;;;0.70;;
62903;SDS011;49000;50.698;13.322;2022-10-16T11:30:04;2.83;;;0.73;;
62903;SDS011;49000;50.698;13.322;2022-10-16T11:33:25;1.50;;;0.67;;
62903;SDS011;49000;50.698;13.322;2022-10-16T11:38:36;0.70;;;0.70;;
62903;SDS011;49000;50.698;13.322;2022-10-16T11:41:22;0.95;;;0.63;;
62903;SDS011;49000;50.698;13.322;2022-10-16T11:44:00;2.03;;;0.77;;
62903;SDS011;49000;50.698;13.322;2022-10-16T11:46:28;0.68;;;0.68;;
62903;SDS011;49000;50.698;13.322;2022-10-16T11:49:00;1.98;;;0.75;;
62903;SDS011;49000;50.698;13.322;2022-10-16T11:51:48;1.10;;;0.70;;
62903;SDS011;49000;50.698;13.322;2022-10-16T11:57:26;0.60;;;0.60;;
62903;SDS011;49000;50.698;13.322;2022-10-16T11:59:55;1.65;;;0.63;;
62903;SDS011;49000;50.698;13.322;2022-10-16T12:02:44;0.70;;;0.60;;
62903;SDS011;49000;50.698;13.322;2022-10-16T12:07:47;1.02;;;0.63;;
62903;SDS011;49000;50.698;13.322;2022-10-16T12:10:34;1.00;;;0.60;;
62903;SDS011;49000;50.698;13.322;2022-10-16T12:13:03;1.30;;;0.50;;
62903;SDS011;49000;50.698;13.322;2022-10-16T12:15:31;1.17;;;0.50;;
62903;SDS011;49000;50.698;13.322;2022-10-16T12:17:59;0.73;;;0.50;;
62903;SDS011;49000;50.698;13.322;2022-10-16T12:20:26;1.67;;;0.70;;
62903;SDS011;49000;50.698;13.322;2022-10-16T12:23:02;0.63;;;0.50;;
62903;SDS011;49000;50.698;13.322;2022-10-16T12:30:40;1.25;;;0.80;;
62903;SDS011;49000;50.698;13.322;2022-10-16T12:33:16;1.25;;;0.60;;
62903;SDS011;49000;50.698;13.322;2022-10-16T12:35:47;4.30;;;0.70;;
62903;SDS011;49000;50.698;13.322;2022-10-16T12:38:15;1.08;;;0.60;;
62903;SDS011;49000;50.698;13.322;2022-10-16T12:40:43;2.40;;;0.70;;
62903;SDS011;49000;50.698;13.322;2022-10-16T12:43:24;2.13;;;0.57;;
62903;SDS011;49000;50.698;13.322;2022-10-16T12:46:05;1.25;;;0.65;;
62903;SDS011;49000;50.698;13.322;2022-10-16T12:48:47;0.90;;;0.60;;
62903;SDS011;49000;50.698;13.322;2022-10-16T12:56:39;1.25;;;0.70;;
62903;SDS011;49000;50.698;13.322;2022-10-16T13:08:18;0.95;;;0.60;;
62903;SDS011;49000;50.698;13.322;2022-10-16T13:13:51;0.63;;;0.63;;
62903;SDS011;49000;50.698;13.322;2022-10-16T13:22:03;0.88;;;0.70;;
62903;SDS011;49000;50.698;13.322;2022-10-16T13:24:43;1.85;;;0.70;;
62903;SDS011;49000;50.698;13.322;2022-10-16T13:32:50;2.92;;;0.70;;
62903;SDS011;49000;50.698;13.322;2022-10-16T13:35:22;3.05;;;0.70;;
62903;SDS011;49000;50.698;13.322;2022-10-16T13:37:50;0.60;;;0.50;;
62903;SDS011;49000;50.698;13.322;2022-10-16T13:40:20;1.30;;;0.55;;
62903;SDS011;49000;50.698;13.322;2022-10-16T13:42:48;0.60;;;0.60;;
62903;SDS011;49000;50.698;13.322;2022-10-16T13:45:22;2.58;;;0.60;;
62903;SDS011;49000;50.698;13.322;2022-10-16T13:47:50;2.00;;;0.80;;
62903;SDS011;49000;50.698;13.322;2022-10-16T13:50:30;0.85;;;0.55;;
62903;SDS011;49000;50.698;13.322;2022-10-16T13:53:06;2.63;;;0.63;;
62903;SDS011;49000;50.698;13.322;2022-10-16T13:55:32;3.05;;;0.77;;
62903;SDS011;49000;50.698;13.322;2022-10-16T13:58:07;2.97;;;0.77;;
62903;SDS011;49000;50.698;13.322;2022-10-16T14:00:37;1.20;;;0.60;;
62903;SDS011;49000;50.698;13.322;2022-10-16T14:03:07;0.90;;;0.70;;
62903;SDS011;49000;50.698;13.322;2022-10-16T14:05:55;2.55;;;0.70;;
62903;SDS011;49000;50.698;13.322;2022-10-16T14:08:23;0.50;;;0.50;;
62903;SDS011;49000;50.698;13.322;2022-10-16T14:10:51;1.15;;;0.70;;
62903;SDS011;49000;50.698;13.322;2022-10-16T14:16:10;1.70;;;0.43;;
62903;SDS011;49000;50.698;13.322;2022-10-16T14:18:41;1.20;;;0.50;;
62903;SDS011;49000;50.698;13.322;2022-10-16T14:21:14;1.02;;;0.47;;
62903;SDS011;49000;50.698;13.322;2022-10-16T14:23:41;3.13;;;1.10;;
62903;SDS011;49000;50.698;13.322;2022-10-16T14:28:33;2.40;;;0.60;;
62903;SDS011;49000;50.698;13.322;2022-10-16T14:31:00;0.60;;;0.60;;
62903;SDS011;49000;50.698;13.322;2022-10-16T14:36:05;1.63;;;0.60;;
62903;SDS011;49000;50.698;13.322;2022-10-16T14:38:33;4.57;;;0.77;;
62903;SDS011;49000;50.698;13.322;2022-10-16T14:40:59;0.50;;;0.50;;
62903;SDS011;49000;50.698;13.322;2022-10-16T14:43:32;0.50;;;0.50;;
62903;SDS011;49000;50.698;13.322;2022-10-16T14:46:03;3.55;;;0.50;;
62903;SDS011;49000;50.698;13.322;2022-10-16T14:48:35;1.67;;;0.60;;
62903;SDS011;49000;50.698;13.322;2022-10-16T14:51:00;0.50;;;0.40;;
62903;SDS011;49000;50.698;13.322;2022-10-16T14:53:26;1.10;;;0.50;;
62903;SDS011;49000;50.698;13.322;2022-10-16T14:55:51;0.73;;;0.50;;
62903;SDS011;49000;50.698;13.322;2022-10-16T14:58:18;0.77;;;0.63;;
62903;SDS011;49000;50.698;13.322;2022-10-16T15:00:46;0.75;;;0.50;;
62903;SDS011;49000;50.698;13.322;2022-10-16T15:03:12;2.10;;;0.52;;
62903;SDS011;49000;50.698;13.322;2022-10-16T15:05:38;1.17;;;0.60;;
62903;SDS011;49000;50.698;13.322;2022-10-16T15:08:03;1.98;;;0.40;;
62903;SDS011;49000;50.698;13.322;2022-10-16T15:10:29;0.65;;;0.55;;
62903;SDS011;49000;50.698;13.322;2022-10-16T15:12:55;0.68;;;0.63;;
62903;SDS011;49000;50.698;13.322;2022-10-16T15:15:32;1.08;;;0.50;;
62903;SDS011;49000;50.698;13.322;2022-10-16T15:18:00;0.60;;;0.57;;
62903;SDS011;49000;50.698;13.322;2022-10-16T15:20:28;1.40;;;0.70;;
62903;SDS011;49000;50.698;13.322;2022-10-16T15:23:03;0.70;;;0.60;;
62903;SDS011;49000;50.698;13.322;2022-10-16T15:25:36;3.25;;;2.38;;
62903;SDS011;49000;50.698;13.322;2022-10-16T15:28:06;1.50;;;0.93;;
62903;SDS011;49000;50.698;13.322;2022-10-16T15:30:33;3.55;;;1.38;;
62903;SDS011;49000;50.698;13.322;2022-10-16T15:32:59;1.15;;;1.02;;
62903;SDS011;49000;50.698;13.322;2022-10-16T15:35:25;3.05;;;0.70;;
62903;SDS011;49000;50.698;13.322;2022-10-16T15:37:50;1.38;;;0.93;;
62903;SDS011;49000;50.698;13.322;2022-10-16T15:40:16;1.20;;;1.10;;
62903;SDS011;49000;50.698;13.322;2022-10-16T15:42:43;1.00;;;0.93;;
62903;SDS011;49000;50.698;13.322;2022-10-16T15:45:09;3.00;;;1.10;;
62903;SDS011;49000;50.698;13.322;2022-10-16T15:47:35;5.82;;;1.10;;
62903;SDS011;49000;50.698;13.322;2022-10-16T15:50:01;3.17;;;1.20;;
62903;SDS011;49000;50.698;13.322;2022-10-16T15:52:26;4.90;;;1.60;;
62903;SDS011;49000;50.698;13.322;2022-10-16T15:54:53;2.63;;;1.30;;
62903;SDS011;49000;50.698;13.322;2022-10-16T15:57:19;2.35;;;1.30;;
62903;SDS011;49000;50.698;13.322;2022-10-16T15:59:44;1.00;;;0.90;;
62903;SDS011;49000;50.698;13.322;2022-10-16T16:02:10;2.77;;;1.00;;
62903;SDS011;49000;50.698;13.322;2022-10-16T16:04:35;1.03;;;0.83;;
62903;SDS011;49000;50.698;13.322;2022-10-16T16:07:01;3.43;;;0.73;;
62903;SDS011;49000;50.698;13.322;2022-10-16T16:09:29;2.50;;;0.77;;
62903;SDS011;49000;50.698;13.322;2022-10-16T16:11:54;0.97;;;0.70;;
62903;SDS011;49000;50.698;13.322;2022-10-16T16:14:20;1.13;;;0.83;;
62903;SDS011;49000;50.698;13.322;2022-10-16T16:16:45;2.20;;;0.90;;
62903;SDS011;49000;50.698;13.322;2022-10-16T16:19:11;4.60;;;0.90;;
62903;SDS011;49000;50.698;13.322;2022-10-16T16:21:37;2.47;;;0.93;;
62903;SDS011;49000;50.698;13.322;2022-10-16T16:24:02;2.17;;;0.73;;
62903;SDS011;49000;50.698;13.322;2022-10-16T16:26:33;3.47;;;1.00;;
62903;SDS011;49000;50.698;13.322;2022-10-16T16:29:01;1.40;;;1.00;;
62903;SDS011;49000;50.698;13.322;2022-10-16T16:31:28;1.90;;;1.00;;
62903;SDS011;49000;50.698;13.322;2022-10-16T16:33:55;1.47;;;0.87;;